createdAt,value
2019-05-16T00:01:34.592Z,63.57
2019-05-16T00:06:39.147Z,63.42
2019-05-16T00:11:42.754Z,63.71
2019-05-16T00:16:48.315Z,63.83
2019-05-16T00:21:52.037Z,64.14
2019-05-16T00:26:55.426Z,64.38
2019-05-16T00:31:58.814Z,64.44
2019-05-16T00:37:02.545Z,64.70
2019-05-16T00:42:05.937Z,64.69
2019-05-16T00:47:09.329Z,64.55
2019-05-16T00:52:12.720Z,64.70
2019-05-16T00:57:18.861Z,64.85
2019-05-16T01:02:21.933Z,64.90
2019-05-16T01:07:27.595Z,64.54
2019-05-16T01:12:30.472Z,64.69
2019-05-16T01:17:33.863Z,64.73
2019-05-16T01:22:38.474Z,64.51
2019-05-16T01:27:42.153Z,64.80
2019-05-16T01:32:45.548Z,65.00
2019-05-16T01:37:49.008Z,65.21
2019-05-16T01:42:52.729Z,65.15
2019-05-16T01:47:56.115Z,65.28
2019-05-16T01:52:59.518Z,65.20
2019-05-16T01:58:02.907Z,65.29
2019-05-16T02:03:08.255Z,65.44
2019-05-16T02:08:11.505Z,65.63
2019-05-16T02:13:14.921Z,65.88
2019-05-16T02:18:18.703Z,65.95
2019-05-16T02:23:22.058Z,66.04
2019-05-16T02:28:30.940Z,66.18
2019-05-16T02:33:31.667Z,66.12
2019-05-16T02:38:35.377Z,65.94
2019-05-16T02:43:41.679Z,65.92
2019-05-16T02:48:44.063Z,65.87
2019-05-16T02:53:50.777Z,65.58
2019-05-16T02:58:52.573Z,65.46
2019-05-16T03:03:56.036Z,65.42
2019-05-16T03:09:04.775Z,65.67
2019-05-16T03:14:06.425Z,65.81
2019-05-16T03:19:12.723Z,65.67
2019-05-16T03:24:16.124Z,65.80
2019-05-16T03:29:21.825Z,66.04
2019-05-16T03:34:26.403Z,66.18
2019-05-16T03:39:31.420Z,66.29
2019-05-16T03:44:34.979Z,66.33
2019-05-16T03:49:38.367Z,66.36
2019-05-16T03:54:42.178Z,66.46
2019-05-16T03:59:45.668Z,66.46
2019-05-16T04:04:51.046Z,66.40
2019-05-16T04:09:54.177Z,66.42
2019-05-16T04:14:57.952Z,66.15
2019-05-16T04:20:02.369Z,65.81
2019-05-16T04:25:10.863Z,65.87
2019-05-16T04:30:12.888Z,66.09
2019-05-16T04:35:16.471Z,66.25
2019-05-16T04:40:22.008Z,66.41
2019-05-16T04:45:25.220Z,66.38
2019-05-16T04:50:31.124Z,66.20
2019-05-16T04:55:33.744Z,66.13
2019-05-16T05:00:37.145Z,66.30
2019-05-16T05:05:41.415Z,66.47
2019-05-16T05:10:44.814Z,66.52
2019-05-16T05:15:50.731Z,66.73
2019-05-16T05:20:53.406Z,67.07
2019-05-16T05:25:56.798Z,67.89
2019-05-16T05:31:00.202Z,67.73
2019-05-16T05:36:03.931Z,67.90
2019-05-16T05:41:07.313Z,67.60
2019-05-16T05:46:11.314Z,67.99
2019-05-16T05:51:14.746Z,67.63
2019-05-16T05:56:19.775Z,68.16
2019-05-16T06:01:23.218Z,67.80
2019-05-16T06:06:26.618Z,67.18
2019-05-16T06:11:30.717Z,67.29
2019-05-16T06:16:34.549Z,67.45
2019-05-16T06:21:38.050Z,67.17
2019-05-16T06:26:41.445Z,67.50
2019-05-16T06:31:44.848Z,66.94
2019-05-16T06:36:50.685Z,67.22
2019-05-16T06:41:53.387Z,66.81
2019-05-16T06:47:12.598Z,66.64
2019-05-16T06:52:02.017Z,66.11
2019-05-16T06:57:05.428Z,65.65
2019-05-16T07:02:12.269Z,65.23
2019-05-16T07:07:13.971Z,65.01
2019-05-16T07:12:20.130Z,65.06
2019-05-16T07:17:23.143Z,64.58
2019-05-16T07:22:26.863Z,64.29
2019-05-16T07:27:31.010Z,64.05
2019-05-16T07:32:34.826Z,63.36
2019-05-16T07:37:39.961Z,63.01
2019-05-16T07:42:43.509Z,62.59
2019-05-16T07:47:46.942Z,62.34
2019-05-16T07:52:51.178Z,62.44
2019-05-16T07:57:54.792Z,62.00
2019-05-16T08:03:00.031Z,61.86
2019-05-16T08:08:03.578Z,61.79
2019-05-16T08:13:07.087Z,61.51
2019-05-16T08:18:11.191Z,60.87
2019-05-16T08:23:14.607Z,60.79
2019-05-16T08:28:21.524Z,60.44
2019-05-16T08:33:23.170Z,60.18
2019-05-16T08:38:26.899Z,59.99
2019-05-16T08:43:31.634Z,59.55
2019-05-16T08:48:35.988Z,59.02
2019-05-16T08:53:43.289Z,58.75
2019-05-16T08:58:44.562Z,58.91
2019-05-16T09:03:51.689Z,58.80
2019-05-16T09:08:53.252Z,59.28
2019-05-16T09:13:57.363Z,60.16
2019-05-16T09:19:00.988Z,59.92
2019-05-16T09:24:06.201Z,59.34
2019-05-16T09:29:09.678Z,59.90
2019-05-16T09:34:13.083Z,58.67
2019-05-16T09:39:17.127Z,58.08
2019-05-16T09:44:20.450Z,57.90
2019-05-16T09:49:25.945Z,58.52
2019-05-16T09:54:28.966Z,58.29
2019-05-16T09:59:32.370Z,57.92
2019-05-16T10:04:36.836Z,57.74
2019-05-16T10:09:45.007Z,57.25
2019-05-16T10:14:46.988Z,57.99
2019-05-16T10:19:50.489Z,57.64
2019-05-16T10:24:53.884Z,57.06
2019-05-16T10:30:01.135Z,57.42
2019-05-16T10:35:02.566Z,57.01
2019-05-16T10:40:07.432Z,56.59
2019-05-16T10:45:11.583Z,56.91
2019-05-16T10:50:16.655Z,57.05
2019-05-16T10:55:20.476Z,55.94
2019-05-16T11:00:46.961Z,56.30
2019-05-16T11:05:33.360Z,54.97
2019-05-16T11:10:37.173Z,54.62
2019-05-16T11:15:39.903Z,55.32
2019-05-16T11:20:47.829Z,54.57
2019-05-16T11:25:48.456Z,54.55
2019-05-16T11:30:52.044Z,56.38
2019-05-16T11:35:55.499Z,55.88
2019-05-16T11:40:58.913Z,54.87
2019-05-16T11:46:02.597Z,55.50
2019-05-16T11:51:07.256Z,56.37
2019-05-16T11:56:10.806Z,56.70
2019-05-16T12:01:16.497Z,56.91
2019-05-16T12:06:19.962Z,57.03
2019-05-16T12:11:23.377Z,57.72
2019-05-16T12:16:27.547Z,55.78
2019-05-16T12:21:31.052Z,55.75
2019-05-16T12:26:37.102Z,54.72
2019-05-16T12:31:54.228Z,54.86
2019-05-16T12:36:47.241Z,55.72
2019-05-16T12:41:50.401Z,56.48
2019-05-16T12:46:53.829Z,56.68
2019-05-16T12:51:57.224Z,56.91
2019-05-16T12:57:00.935Z,57.27
2019-05-16T13:02:06.990Z,57.44
2019-05-16T13:07:09.877Z,58.39
2019-05-16T13:12:13.558Z,59.86
2019-05-16T13:17:16.969Z,59.62
2019-05-16T13:22:20.357Z,59.18
2019-05-16T13:27:23.754Z,59.38
2019-05-16T13:32:27.321Z,59.64
2019-05-16T13:37:30.722Z,59.57
2019-05-16T13:42:36.698Z,59.50
2019-05-16T13:47:39.260Z,59.27
2019-05-16T13:52:42.734Z,59.37
2019-05-16T13:57:46.219Z,58.79
2019-05-16T14:02:49.656Z,59.10
2019-05-16T14:07:53.357Z,58.69
2019-05-16T14:12:57.705Z,58.21
2019-05-16T14:18:01.490Z,57.70
2019-05-16T14:23:08.069Z,57.69
2019-05-16T14:28:10.038Z,58.23
2019-05-16T14:33:14.246Z,58.43
2019-05-16T14:38:17.872Z,59.05
2019-05-16T14:43:21.201Z,60.59
2019-05-16T14:48:27.573Z,62.27
2019-05-16T14:53:29.731Z,62.74
2019-05-16T14:58:33.133Z,62.74
2019-05-16T15:03:37.099Z,64.05
2019-05-16T15:08:40.625Z,63.63
2019-05-16T15:13:44.291Z,63.82
2019-05-16T15:18:47.761Z,63.83
2019-05-16T15:23:51.090Z,63.86
2019-05-16T15:28:54.547Z,64.71
2019-05-16T15:33:57.954Z,64.30
2019-05-16T15:39:01.384Z,65.03
2019-05-16T15:44:07.576Z,65.31
2019-05-16T15:49:10.577Z,65.68
2019-05-16T15:54:23.343Z,66.08
2019-05-16T15:59:27.179Z,66.53
2019-05-16T16:04:31.112Z,66.66
2019-05-16T16:09:37.612Z,66.66
2019-05-16T16:14:40.208Z,66.94
2019-05-16T16:19:43.600Z,67.58
2019-05-16T16:24:47.878Z,68.00
2019-05-16T16:29:51.390Z,68.39
2019-05-16T16:34:57.541Z,68.79
2019-05-16T16:40:01.067Z,69.06
2019-05-16T16:45:09.272Z,69.27
2019-05-16T16:50:13.004Z,69.33
2019-05-16T16:55:17.176Z,69.42
2019-05-16T17:00:21.091Z,69.52
2019-05-16T17:05:26.390Z,69.65
2019-05-16T17:10:29.635Z,69.75
2019-05-16T17:15:33.034Z,69.71
2019-05-16T17:20:37.131Z,69.50
2019-05-16T17:25:41.146Z,69.57
2019-05-16T17:30:46.865Z,69.57
2019-05-16T17:35:50.006Z,69.86
2019-05-16T17:40:53.395Z,69.94
2019-05-16T17:45:57.565Z,70.29
2019-05-16T17:51:01.198Z,70.41
2019-05-16T17:56:06.841Z,70.41
2019-05-16T18:01:10.294Z,70.51
2019-05-16T18:06:14.036Z,70.37
2019-05-16T18:11:17.900Z,70.46
2019-05-16T18:16:21.240Z,70.68
2019-05-16T18:21:24.643Z,70.72
2019-05-16T18:26:28.043Z,70.75
2019-05-16T18:31:32.236Z,70.67
2019-05-16T18:36:36.029Z,70.69
2019-05-16T18:41:39.426Z,70.83
2019-05-16T18:46:42.920Z,71.03
2019-05-16T18:51:46.652Z,71.04
2019-05-16T18:56:50.161Z,70.80
2019-05-16T19:01:53.566Z,70.61
2019-05-16T19:06:59.411Z,70.65
2019-05-16T19:12:02.081Z,70.62
2019-05-16T19:17:20.647Z,70.47
2019-05-16T19:22:10.620Z,70.37
2019-05-16T19:27:14.131Z,70.48
2019-05-16T19:32:17.540Z,70.78
2019-05-16T19:37:21.238Z,70.89
2019-05-16T19:42:26.657Z,70.76
2019-05-16T19:47:37.543Z,70.81
2019-05-16T19:52:36.721Z,70.80
2019-05-16T19:57:40.344Z,70.79
2019-05-16T20:02:43.744Z,70.50
2019-05-16T20:07:47.174Z,70.41
2019-05-16T20:12:50.577Z,70.47
2019-05-16T20:17:56.210Z,70.41
2019-05-16T20:22:59.138Z,70.53
2019-05-16T20:28:02.542Z,70.49
2019-05-16T20:33:09.193Z,70.29
2019-05-16T20:38:11.773Z,70.30
2019-05-16T20:43:16.829Z,70.33
2019-05-16T20:48:20.406Z,70.41
2019-05-16T20:53:24.069Z,70.37
2019-05-16T20:58:27.551Z,70.28
2019-05-16T21:03:31.044Z,70.17
2019-05-16T21:08:34.496Z,70.14
2019-05-16T21:13:37.941Z,70.19
2019-05-16T21:18:41.437Z,70.10
2019-05-16T21:23:46.990Z,70.15
2019-05-16T21:28:50.455Z,70.29
2019-05-16T21:33:53.851Z,70.20
2019-05-16T21:38:57.330Z,70.17
2019-05-16T21:44:00.737Z,70.21
2019-05-16T21:49:04.206Z,70.29
2019-05-16T21:54:07.615Z,70.17
2019-05-16T21:59:11.020Z,70.19
2019-05-16T22:04:14.767Z,70.22
2019-05-16T22:09:18.216Z,70.05
2019-05-16T22:14:24.665Z,70.09
2019-05-16T22:19:28.067Z,70.02
2019-05-16T22:24:31.460Z,70.15
2019-05-16T22:29:37.044Z,70.09
2019-05-16T22:34:39.978Z,70.03
2019-05-16T22:39:43.380Z,69.96
2019-05-16T22:44:46.770Z,68.90
2019-05-16T22:49:50.204Z,69.33
2019-05-16T22:54:53.597Z,69.70
2019-05-16T22:59:57.040Z,69.26
2019-05-16T23:05:00.390Z,69.42
2019-05-16T23:10:03.926Z,69.36
2019-05-16T23:15:07.613Z,69.39
2019-05-16T23:20:11.177Z,69.10
2019-05-16T23:25:16.925Z,69.07
2019-05-16T23:30:20.419Z,69.35
2019-05-16T23:35:26.708Z,69.51
2019-05-16T23:40:29.227Z,69.60
2019-05-16T23:45:32.702Z,69.39
2019-05-16T23:50:36.811Z,69.32
2019-05-16T23:55:40.631Z,69.29
